createdAt,value
2018-05-09T00:00:12.518Z,100212.95
2018-05-09T00:02:41.019Z,100218.23
2018-05-09T00:05:10.173Z,100216.13
2018-05-09T00:07:38.628Z,100215.75
2018-05-09T00:10:07.007Z,100210.12
2018-05-09T00:12:35.403Z,100209.72
2018-05-09T00:15:03.891Z,100208.39
2018-05-09T00:17:32.287Z,100211.87
2018-05-09T00:20:00.713Z,100209.20
2018-05-09T00:22:29.091Z,100206.91
2018-05-09T00:24:58.315Z,100201.98
2018-05-09T00:27:26.719Z,100202.08
2018-05-09T00:29:55.107Z,100202.62
2018-05-09T00:32:23.610Z,100200.48
2018-05-09T00:34:52.016Z,100204.48
2018-05-09T00:37:20.725Z,100204.52
2018-05-09T00:39:49.144Z,100198.95
2018-05-09T00:42:17.582Z,100204.20
2018-05-09T00:44:45.996Z,100202.08
2018-05-09T00:47:14.414Z,100200.81
2018-05-09T00:49:42.845Z,100197.33
2018-05-09T00:52:12.087Z,100195.22
2018-05-09T00:54:40.495Z,100191.70
2018-05-09T00:57:10.466Z,100187.33
2018-05-09T00:59:39.637Z,100193.46
2018-05-09T01:02:08.050Z,100191.23
2018-05-09T01:04:36.484Z,100189.05
2018-05-09T01:07:05.010Z,100194.20
2018-05-09T01:09:34.295Z,100186.41
2018-05-09T01:12:02.722Z,100187.32
2018-05-09T01:14:31.122Z,100193.37
2018-05-09T01:16:59.651Z,100191.27
2018-05-09T01:19:28.456Z,100192.16
2018-05-09T01:21:58.517Z,100188.69
2018-05-09T01:24:26.917Z,100193.05
2018-05-09T01:26:55.522Z,100188.30
2018-05-09T01:29:24.854Z,100185.25
2018-05-09T01:31:53.327Z,100184.00
2018-05-09T01:34:22.025Z,100183.13
2018-05-09T01:36:54.545Z,100180.95
2018-05-09T01:39:22.957Z,100182.71
2018-05-09T01:41:51.406Z,100179.23
2018-05-09T01:44:19.844Z,100175.33
2018-05-09T01:46:49.603Z,100177.95
2018-05-09T01:49:18.099Z,100177.51
2018-05-09T01:51:46.514Z,100177.10
2018-05-09T01:54:15.042Z,100179.27
2018-05-09T01:56:45.777Z,100176.22
2018-05-09T01:59:15.054Z,100179.72
2018-05-09T02:01:43.554Z,100175.38
2018-05-09T02:04:13.639Z,100172.77
2018-05-09T02:06:43.103Z,100173.17
2018-05-09T02:09:11.511Z,100171.02
2018-05-09T02:11:40.014Z,100171.41
2018-05-09T02:14:08.475Z,100168.75
2018-05-09T02:16:36.923Z,100171.38
2018-05-09T02:19:06.247Z,100173.11
2018-05-09T02:21:35.024Z,100172.25
2018-05-09T02:24:03.798Z,100171.38
2018-05-09T02:26:32.945Z,100170.92
2018-05-09T02:29:02.131Z,100164.86
2018-05-09T02:31:34.152Z,100167.89
2018-05-09T02:34:02.555Z,100166.17
2018-05-09T02:36:30.947Z,100167.47
2018-05-09T02:39:18.738Z,100172.70
2018-05-09T02:41:47.934Z,100174.90
2018-05-09T02:44:16.355Z,100174.91
2018-05-09T02:46:46.270Z,100176.20
2018-05-09T02:49:15.657Z,100169.70
2018-05-09T02:51:44.124Z,100167.05
2018-05-09T02:54:12.523Z,100174.02
2018-05-09T02:56:40.951Z,100169.63
2018-05-09T02:59:10.093Z,100167.45
2018-05-09T03:01:39.516Z,100175.30
2018-05-09T03:04:07.944Z,100174.03
2018-05-09T03:06:36.651Z,100172.72
2018-05-09T03:09:05.493Z,100175.80
2018-05-09T03:11:34.298Z,100182.30
2018-05-09T03:14:02.751Z,100188.38
2018-05-09T03:16:31.182Z,100185.34
2018-05-09T03:19:00.349Z,100184.47
2018-05-09T03:21:28.766Z,100184.47
2018-05-09T03:23:58.026Z,100181.80
2018-05-09T03:26:27.203Z,100183.58
2018-05-09T03:28:57.184Z,100176.17
2018-05-09T03:31:26.353Z,100174.88
2018-05-09T03:33:55.525Z,100180.11
2018-05-09T03:36:24.001Z,100181.41
2018-05-09T03:38:52.435Z,100179.27
2018-05-09T03:41:21.342Z,100181.00
2018-05-09T03:43:49.866Z,100185.80
2018-05-09T03:46:18.292Z,100183.61
2018-05-09T03:48:46.758Z,100190.14
2018-05-09T03:51:15.223Z,100183.62
2018-05-09T03:53:43.603Z,100187.97
2018-05-09T03:56:12.944Z,100183.18
2018-05-09T03:58:44.896Z,100183.19
2018-05-09T04:01:14.239Z,100182.28
2018-05-09T04:04:01.424Z,100189.22
2018-05-09T04:06:47.546Z,100193.98
2018-05-09T04:09:35.392Z,100200.48
2018-05-09T04:12:03.748Z,100201.37
2018-05-09T04:14:34.051Z,100209.13
2018-05-09T04:17:02.466Z,100211.22
2018-05-09T04:19:31.660Z,100217.19
2018-05-09T04:22:01.119Z,100220.17
2018-05-09T04:24:30.212Z,100221.47
2018-05-09T04:26:58.671Z,100219.72
2018-05-09T04:29:28.924Z,100213.25
2018-05-09T04:31:57.406Z,100214.56
2018-05-09T04:34:25.827Z,100214.58
2018-05-09T04:36:54.458Z,100214.58
2018-05-09T04:39:24.309Z,100214.58
2018-05-09T04:41:52.766Z,100211.10
2018-05-09T04:44:21.944Z,100214.52
2018-05-09T04:46:51.152Z,100207.94
2018-05-09T04:49:20.325Z,100198.27
2018-05-09T04:51:48.713Z,100201.11
2018-05-09T04:54:17.141Z,100199.20
2018-05-09T04:56:45.533Z,100203.27
2018-05-09T04:59:14.050Z,100203.55
2018-05-09T05:01:42.542Z,100205.66
2018-05-09T05:04:12.539Z,100204.33
2018-05-09T05:06:40.941Z,100210.44
2018-05-09T05:09:12.211Z,100210.79
2018-05-09T05:11:40.746Z,100218.99
2018-05-09T05:14:13.651Z,100223.73
2018-05-09T05:16:43.021Z,100214.48
2018-05-09T05:19:12.620Z,100218.34
2018-05-09T05:21:42.729Z,100219.06
2018-05-09T05:24:12.988Z,100223.26
2018-05-09T05:26:44.458Z,100221.62
2018-05-09T05:29:14.742Z,100224.89
2018-05-09T05:31:44.079Z,100225.02
2018-05-09T05:34:13.177Z,100225.20
2018-05-09T05:36:43.115Z,100236.38
2018-05-09T05:39:13.537Z,100226.11
2018-05-09T05:41:43.498Z,100230.69
2018-05-09T05:44:12.866Z,100230.60
2018-05-09T05:46:43.766Z,100231.20
2018-05-09T05:49:13.988Z,100227.52
2018-05-09T05:51:43.883Z,100227.01
2018-05-09T05:54:12.575Z,100223.49
2018-05-09T05:56:42.541Z,100225.95
2018-05-09T05:59:11.021Z,100220.06
2018-05-09T06:01:39.935Z,100225.22
2018-05-09T06:04:09.610Z,100225.48
2018-05-09T06:06:39.957Z,100222.91
2018-05-09T06:09:12.580Z,100225.84
2018-05-09T06:11:42.550Z,100225.57
2018-05-09T06:14:11.866Z,100230.02
2018-05-09T06:16:40.246Z,100229.12
2018-05-09T06:19:08.662Z,100235.84
2018-05-09T06:21:37.287Z,100239.83
2018-05-09T06:24:05.898Z,100237.55
2018-05-09T06:26:36.339Z,100244.24
2018-05-09T06:29:04.726Z,100243.13
2018-05-09T06:31:33.162Z,100234.54
2018-05-09T06:34:05.388Z,100237.36
2018-05-09T06:36:33.877Z,100243.13
2018-05-09T06:39:02.273Z,100245.97
2018-05-09T06:41:31.078Z,100247.08
2018-05-09T06:44:00.189Z,100246.87
2018-05-09T06:46:28.580Z,100241.79
2018-05-09T06:48:57.025Z,100241.75
2018-05-09T06:51:25.432Z,100239.48
2018-05-09T06:53:53.832Z,100238.30
2018-05-09T06:56:22.411Z,100235.60
2018-05-09T06:58:52.679Z,100233.64
2018-05-09T07:01:21.137Z,100235.53
2018-05-09T07:04:00.700Z,100237.98
2018-05-09T07:06:29.279Z,100238.97
2018-05-09T07:08:58.443Z,100246.83
2018-05-09T07:11:27.903Z,100239.78
2018-05-09T07:13:56.302Z,100243.97
2018-05-09T07:16:25.867Z,100240.06
2018-05-09T07:18:54.388Z,100239.73
2018-05-09T07:21:22.797Z,100243.09
2018-05-09T07:23:51.186Z,100242.19
2018-05-09T07:26:19.593Z,100242.30
2018-05-09T07:28:48.118Z,100244.64
2018-05-09T07:31:16.586Z,100239.24
2018-05-09T07:33:45.768Z,100244.59
2018-05-09T07:36:14.186Z,100243.70
2018-05-09T07:38:42.584Z,100238.19
2018-05-09T07:41:11.013Z,100232.51
2018-05-09T07:43:39.410Z,100231.08
2018-05-09T07:46:07.811Z,100227.70
2018-05-09T07:48:37.154Z,100221.61
2018-05-09T07:51:05.627Z,100224.81
2018-05-09T07:53:34.047Z,100220.91
2018-05-09T07:56:02.455Z,100221.74
2018-05-09T07:58:31.632Z,100225.58
2018-05-09T08:01:00.036Z,100232.67
2018-05-09T08:03:29.218Z,100241.38
2018-05-09T08:05:57.674Z,100227.23
2018-05-09T08:08:26.211Z,100237.44
2018-05-09T08:10:55.384Z,100236.77
2018-05-09T08:13:23.849Z,100234.69
2018-05-09T08:15:52.786Z,100236.84
2018-05-09T08:18:21.958Z,100240.45
2018-05-09T08:20:50.666Z,100242.81
2018-05-09T08:23:19.106Z,100247.00
2018-05-09T08:25:47.508Z,100245.86
2018-05-09T08:28:15.917Z,100241.55
2018-05-09T08:30:44.322Z,100239.39
2018-05-09T08:33:13.473Z,100244.30
2018-05-09T08:35:41.967Z,100243.48
2018-05-09T08:38:11.128Z,100245.45
2018-05-09T08:40:39.621Z,100239.95
2018-05-09T08:43:08.036Z,100247.63
2018-05-09T08:45:36.457Z,100244.48
2018-05-09T08:48:05.647Z,100248.88
2018-05-09T08:50:34.082Z,100237.46
2018-05-09T08:53:02.565Z,100232.60
2018-05-09T08:55:30.999Z,100230.81
2018-05-09T08:57:59.354Z,100233.90
2018-05-09T09:00:28.650Z,100232.19
2018-05-09T09:02:57.032Z,100237.36
2018-05-09T09:05:25.444Z,100230.65
2018-05-09T09:07:53.946Z,100230.89
2018-05-09T09:10:22.343Z,100230.16
2018-05-09T09:12:51.495Z,100230.28
2018-05-09T09:15:19.904Z,100222.34
2018-05-09T09:17:48.278Z,100223.72
2018-05-09T09:20:16.673Z,100221.66
2018-05-09T09:22:45.046Z,100218.09
2018-05-09T09:25:14.942Z,100219.34
2018-05-09T09:27:43.357Z,100219.20
2018-05-09T09:30:11.739Z,100219.30
2018-05-09T09:32:40.199Z,100206.28
2018-05-09T09:35:08.572Z,100216.70
2018-05-09T09:37:36.982Z,100203.48
2018-05-09T09:40:05.387Z,100199.39
2018-05-09T09:42:33.882Z,100201.56
2018-05-09T09:45:03.059Z,100200.63
2018-05-09T09:47:31.440Z,100186.55
2018-05-09T09:49:59.826Z,100185.84
2018-05-09T09:52:28.259Z,100184.35
2018-05-09T09:54:56.684Z,100177.83
2018-05-09T09:57:25.083Z,100177.62
2018-05-09T09:59:53.455Z,100170.62
2018-05-09T10:02:21.855Z,100174.52
2018-05-09T10:04:50.275Z,100169.67
2018-05-09T10:07:18.694Z,100162.36
2018-05-09T10:09:47.097Z,100168.53
2018-05-09T10:12:15.496Z,100163.20
2018-05-09T10:14:44.702Z,100165.20
2018-05-09T10:17:13.884Z,100159.31
2018-05-09T10:19:42.403Z,100160.38
2018-05-09T10:22:11.547Z,100155.73
2018-05-09T10:24:40.730Z,100150.50
2018-05-09T10:27:09.157Z,100150.36
2018-05-09T10:29:37.572Z,100140.98
2018-05-09T10:32:06.068Z,100132.05
2018-05-09T10:34:34.462Z,100129.17
2018-05-09T10:37:02.889Z,100126.75
2018-05-09T10:39:31.268Z,100126.27
2018-05-09T10:41:59.757Z,100127.69
2018-05-09T10:44:28.146Z,100125.59
2018-05-09T10:46:56.593Z,100125.34
2018-05-09T10:49:24.970Z,100114.53
2018-05-09T10:51:53.374Z,100117.72
2018-05-09T10:54:22.506Z,100111.98
2018-05-09T10:56:50.882Z,100109.46
2018-05-09T10:59:19.282Z,100106.77
2018-05-09T11:01:47.695Z,100100.35
2018-05-09T11:04:16.127Z,100101.30
2018-05-09T11:06:44.527Z,100101.08
2018-05-09T11:09:13.682Z,100098.41
2018-05-09T11:11:42.083Z,100090.50
2018-05-09T11:14:10.486Z,100100.38
2018-05-09T11:16:38.878Z,100102.70
2018-05-09T11:19:08.035Z,100096.81
2018-05-09T11:21:36.478Z,100095.53
2018-05-09T11:24:05.696Z,100090.55
2018-05-09T11:26:34.139Z,100086.88
2018-05-09T11:29:02.533Z,100086.41
2018-05-09T11:31:30.933Z,100084.02
2018-05-09T11:34:00.883Z,100085.73
2018-05-09T11:36:29.255Z,100084.86
2018-05-09T11:38:57.634Z,100079.67
2018-05-09T11:41:26.038Z,100070.89
2018-05-09T11:43:54.406Z,100076.47
2018-05-09T11:46:22.814Z,100070.38
2018-05-09T11:48:51.188Z,100068.06
2018-05-09T11:51:19.557Z,100064.84
2018-05-09T11:53:47.977Z,100061.61
2018-05-09T11:56:16.362Z,100058.93
2018-05-09T11:58:44.762Z,100058.23
2018-05-09T12:01:13.134Z,100057.06
2018-05-09T12:03:41.525Z,100046.50
2018-05-09T12:06:09.958Z,100047.91
2018-05-09T12:08:38.334Z,100036.13
2018-05-09T12:11:06.718Z,100043.38
2018-05-09T12:13:35.085Z,100036.56
2018-05-09T12:16:04.302Z,100039.07
2018-05-09T12:18:32.679Z,100036.97
2018-05-09T12:21:01.129Z,100041.29
2018-05-09T12:23:29.511Z,100038.53
2018-05-09T12:25:57.894Z,100036.45
2018-05-09T12:28:26.322Z,100030.59
2018-05-09T12:30:54.690Z,100028.44
2018-05-09T12:33:23.080Z,100025.36
2018-05-09T12:35:51.458Z,100019.92
2018-05-09T12:38:19.882Z,100019.25
2018-05-09T12:40:48.282Z,100015.13
2018-05-09T12:43:16.723Z,100012.75
2018-05-09T12:45:45.098Z,100016.92
2018-05-09T12:48:13.581Z,100009.44
2018-05-09T12:50:42.194Z,100008.14
2018-05-09T12:53:10.610Z,100003.77
2018-05-09T12:55:38.978Z,99989.64
2018-05-09T12:58:07.349Z,99996.84
2018-05-09T13:00:35.730Z,100000.44
2018-05-09T13:03:04.093Z,99989.73
2018-05-09T13:05:32.486Z,99985.48
2018-05-09T13:08:00.873Z,99984.36
2018-05-09T13:10:29.241Z,99983.22
2018-05-09T13:12:57.666Z,99982.40
2018-05-09T13:15:26.846Z,99983.33
2018-05-09T13:17:55.241Z,99975.81
2018-05-09T13:20:23.674Z,99974.50
2018-05-09T13:22:52.841Z,99968.77
2018-05-09T13:25:21.205Z,99967.67
2018-05-09T13:27:49.590Z,99957.07
2018-05-09T13:30:17.966Z,99960.70
2018-05-09T13:32:46.361Z,99957.63
2018-05-09T13:35:14.767Z,99958.33
2018-05-09T13:37:43.141Z,99954.25
2018-05-09T13:40:11.535Z,99953.92
2018-05-09T13:42:39.899Z,99951.02
2018-05-09T13:45:08.390Z,99947.30
2018-05-09T13:47:36.787Z,99949.54
2018-05-09T13:50:05.206Z,99942.00
2018-05-09T13:52:33.700Z,99944.31
2018-05-09T13:55:02.103Z,99948.83
2018-05-09T13:57:30.621Z,99941.30
2018-05-09T13:59:58.994Z,99947.16
2018-05-09T14:02:27.367Z,99935.22
2018-05-09T14:04:55.746Z,99936.02
2018-05-09T14:07:24.122Z,99937.16
2018-05-09T14:09:52.662Z,99936.70
2018-05-09T14:12:20.983Z,99935.34
2018-05-09T14:14:49.383Z,99929.55
2018-05-09T14:17:17.798Z,99929.69
2018-05-09T14:19:46.171Z,99925.34
2018-05-09T14:22:14.529Z,99931.88
2018-05-09T14:24:42.925Z,99928.37
2018-05-09T14:27:11.355Z,99927.06
2018-05-09T14:29:39.697Z,99929.12
2018-05-09T14:32:08.099Z,99928.79
2018-05-09T14:34:36.538Z,99924.41
2018-05-09T14:37:04.929Z,99921.42
2018-05-09T14:39:33.317Z,99926.25
2018-05-09T14:42:01.707Z,99921.56
2018-05-09T14:44:30.084Z,99916.95
2018-05-09T14:46:58.487Z,99919.64
2018-05-09T14:49:26.884Z,99910.53
2018-05-09T14:51:55.250Z,99908.48
2018-05-09T14:54:23.648Z,99915.44
2018-05-09T14:56:52.033Z,99911.49
2018-05-09T14:59:20.405Z,99907.86
2018-05-09T15:01:48.799Z,99907.55
2018-05-09T15:04:17.189Z,99903.36
2018-05-09T15:06:46.371Z,99910.74
2018-05-09T15:09:14.750Z,99905.25
2018-05-09T15:11:43.217Z,99910.31
2018-05-09T15:14:12.395Z,99913.48
2018-05-09T15:16:40.781Z,99908.06
2018-05-09T15:19:09.154Z,99910.45
2018-05-09T15:21:37.517Z,99906.41
2018-05-09T15:24:06.684Z,99904.48
2018-05-09T15:26:35.067Z,99896.94
2018-05-09T15:29:03.448Z,99894.19
2018-05-09T15:31:31.865Z,99899.31
2018-05-09T15:34:01.011Z,99903.16
2018-05-09T15:36:29.421Z,99895.60
2018-05-09T15:38:57.882Z,99895.78
2018-05-09T15:41:26.161Z,99896.99
2018-05-09T15:43:54.541Z,99898.83
2018-05-09T15:46:22.964Z,99889.23
2018-05-09T15:48:51.359Z,99889.72
2018-05-09T15:51:20.495Z,99888.07
2018-05-09T15:53:48.876Z,99891.39
2018-05-09T15:56:17.291Z,99890.78
2018-05-09T15:58:45.701Z,99882.89
2018-05-09T16:01:14.072Z,99879.13
2018-05-09T16:03:42.471Z,99878.74
2018-05-09T16:06:10.837Z,99877.88
2018-05-09T16:08:39.220Z,99876.17
2018-05-09T16:11:07.602Z,99871.45
2018-05-09T16:13:35.972Z,99880.28
2018-05-09T16:16:04.402Z,99873.33
2018-05-09T16:18:33.535Z,99870.59
2018-05-09T16:21:02.825Z,99876.73
2018-05-09T16:23:31.237Z,99871.41
2018-05-09T16:25:59.641Z,99872.71
2018-05-09T16:28:28.057Z,99875.96
2018-05-09T16:30:56.466Z,99880.02
2018-05-09T16:33:24.900Z,99875.00
2018-05-09T16:35:53.257Z,99871.61
2018-05-09T16:38:22.446Z,99875.95
2018-05-09T16:40:50.817Z,99877.22
2018-05-09T16:43:19.193Z,99880.20
2018-05-09T16:45:47.578Z,99866.48
2018-05-09T16:48:15.969Z,99873.83
2018-05-09T16:50:44.354Z,99873.58
2018-05-09T16:53:12.836Z,99867.84
2018-05-09T16:55:41.160Z,99864.33
2018-05-09T16:58:09.561Z,99868.67
2018-05-09T17:00:37.952Z,99866.34
2018-05-09T17:03:07.109Z,99874.70
2018-05-09T17:05:35.598Z,99876.24
2018-05-09T17:08:03.918Z,99871.64
2018-05-09T17:10:32.332Z,99867.81
2018-05-09T17:13:00.887Z,99866.75
2018-05-09T17:15:29.277Z,99870.39
2018-05-09T17:17:58.422Z,99869.61
2018-05-09T17:20:26.825Z,99865.78
2018-05-09T17:22:55.231Z,99868.78
2018-05-09T17:25:23.650Z,99869.88
2018-05-09T17:27:52.017Z,99871.16
2018-05-09T17:32:52.474Z,99872.24
2018-05-09T17:35:21.630Z,99865.43
2018-05-09T17:37:50.067Z,99862.43
2018-05-09T17:40:18.625Z,99861.81
2018-05-09T17:42:47.903Z,99862.17
2018-05-09T17:45:16.269Z,99868.25
2018-05-09T17:47:44.685Z,99865.23
2018-05-09T17:50:13.189Z,99867.76
2018-05-09T17:52:41.563Z,99872.90
2018-05-09T17:55:09.953Z,99869.64
2018-05-09T17:57:39.089Z,99873.92
2018-05-09T18:00:07.576Z,99876.09
2018-05-09T18:02:35.951Z,99878.16
2018-05-09T18:05:04.399Z,99873.77
2018-05-09T18:07:32.774Z,99874.13
2018-05-09T18:10:01.181Z,99869.09
2018-05-09T18:12:30.606Z,99871.08
2018-05-09T18:14:58.925Z,99860.45
2018-05-09T18:17:27.314Z,99859.18
2018-05-09T18:19:55.706Z,99861.73
2018-05-09T18:22:24.169Z,99867.27
2018-05-09T18:24:52.620Z,99860.87
2018-05-09T18:27:21.021Z,99865.58
2018-05-09T18:29:49.387Z,99862.30
2018-05-09T18:32:17.788Z,99863.16
2018-05-09T18:34:46.247Z,99871.41
2018-05-09T18:37:15.382Z,99865.16
2018-05-09T18:39:43.782Z,99870.00
2018-05-09T18:42:12.181Z,99873.72
2018-05-09T18:44:40.569Z,99873.39
2018-05-09T18:47:08.952Z,99882.24
2018-05-09T18:49:37.367Z,99882.22
2018-05-09T18:52:06.525Z,99878.76
2018-05-09T18:54:34.917Z,99878.48
2018-05-09T18:57:03.297Z,99879.52
2018-05-09T18:59:31.775Z,99887.27
2018-05-09T19:02:00.088Z,99884.86
2018-05-09T19:04:29.262Z,99887.26
2018-05-09T19:06:57.667Z,99886.64
2018-05-09T19:09:26.845Z,99885.55
2018-05-09T19:11:55.340Z,99887.23
2018-05-09T19:14:23.743Z,99889.06
2018-05-09T19:16:52.906Z,99887.50
2018-05-09T19:19:21.283Z,99892.17
2018-05-09T19:21:49.660Z,99883.47
2018-05-09T19:24:18.092Z,99889.66
2018-05-09T19:26:47.254Z,99888.75
2018-05-09T19:29:15.654Z,99886.13
2018-05-09T19:31:44.834Z,99885.45
2018-05-09T19:34:13.256Z,99887.19
2018-05-09T19:36:41.669Z,99885.10
2018-05-09T19:39:10.110Z,99882.80
2018-05-09T19:41:38.547Z,99884.51
2018-05-09T19:44:06.880Z,99887.91
2018-05-09T19:46:35.255Z,99893.46
2018-05-09T19:49:03.652Z,99897.09
2018-05-09T19:51:32.958Z,99901.09
2018-05-09T19:54:01.376Z,99897.56
2018-05-09T19:56:29.860Z,99898.64
2018-05-09T19:58:58.253Z,99910.42
2018-05-09T20:01:26.667Z,99912.41
2018-05-09T20:03:55.061Z,99909.47
2018-05-09T20:06:23.498Z,99911.80
2018-05-09T20:08:51.899Z,99910.70
2018-05-09T20:11:20.294Z,99913.89
2018-05-09T20:13:48.798Z,99917.48
2018-05-09T20:16:17.139Z,99911.00
2018-05-09T20:18:45.537Z,99912.80
2018-05-09T20:21:13.984Z,99909.03
2018-05-09T20:23:43.186Z,99903.11
2018-05-09T20:26:11.562Z,99909.42
2018-05-09T20:28:46.125Z,99907.37
2018-05-09T20:31:37.985Z,99910.17
2018-05-09T20:34:07.042Z,99905.07
2018-05-09T20:36:35.523Z,99906.12
2018-05-09T20:39:03.900Z,99906.84
2018-05-09T20:41:32.325Z,99906.23
2018-05-09T20:44:00.714Z,99910.40
2018-05-09T20:46:29.127Z,99911.81
2018-05-09T20:48:58.277Z,99923.69
2018-05-09T20:51:44.370Z,99919.42
2018-05-09T20:54:12.782Z,99926.48
2018-05-09T20:56:41.147Z,99926.05
2018-05-09T20:59:09.542Z,99926.77
2018-05-09T21:01:49.541Z,99933.93
2018-05-09T21:04:17.938Z,99930.44
2018-05-09T21:06:46.318Z,99932.95
2018-05-09T21:09:14.737Z,99934.28
2018-05-09T21:14:48.453Z,99939.50
2018-05-09T21:17:16.852Z,99938.88
2018-05-09T21:19:46.049Z,99944.38
2018-05-09T21:22:15.200Z,99938.75
2018-05-09T21:24:43.607Z,99936.79
2018-05-09T21:27:12.161Z,99944.60
2018-05-09T21:29:40.503Z,99943.62
2018-05-09T21:32:09.677Z,99943.14
2018-05-09T21:34:38.054Z,99941.98
2018-05-09T21:37:06.432Z,99940.02
2018-05-09T21:39:34.802Z,99941.64
2018-05-09T21:42:03.208Z,99945.73
2018-05-09T21:44:31.630Z,99943.39
2018-05-09T21:47:00.785Z,99946.23
2018-05-09T21:49:29.203Z,99950.08
2018-05-09T21:51:58.349Z,99947.83
2018-05-09T21:54:26.769Z,99953.19
2018-05-09T21:56:55.153Z,99953.89
2018-05-09T21:59:23.544Z,99956.61
2018-05-09T22:01:51.943Z,99956.27
2018-05-09T22:04:21.124Z,99956.69
2018-05-09T22:06:49.513Z,99966.59
2018-05-09T22:09:18.778Z,99963.67
2018-05-09T22:11:47.157Z,99966.01
2018-05-09T22:14:15.574Z,99960.45
2018-05-09T22:16:43.987Z,99970.27
2018-05-09T22:19:13.162Z,99968.66
2018-05-09T22:21:41.576Z,99966.77
2018-05-09T22:24:10.051Z,99964.52
2018-05-09T22:26:39.223Z,99967.87
2018-05-09T22:29:07.628Z,99966.84
2018-05-09T22:31:36.055Z,99964.28
2018-05-09T22:34:04.520Z,99960.81
2018-05-09T22:36:32.931Z,99964.61
2018-05-09T22:39:01.334Z,99967.58
2018-05-09T22:41:30.502Z,99965.20
2018-05-09T22:43:58.977Z,99959.67
2018-05-09T22:46:27.387Z,99963.06
2018-05-09T22:48:55.816Z,99963.44
2018-05-09T22:51:24.201Z,99954.06
2018-05-09T22:53:53.349Z,99956.52
2018-05-09T22:56:21.731Z,99953.67
2018-05-09T22:58:50.147Z,99954.56
2018-05-09T23:01:18.532Z,99950.84
2018-05-09T23:03:46.958Z,99955.88
2018-05-09T23:06:15.347Z,99959.05
2018-05-09T23:08:43.778Z,99957.27
2018-05-09T23:11:12.179Z,99962.17
2018-05-09T23:13:41.019Z,99957.70
2018-05-09T23:16:09.418Z,99969.13
2018-05-09T23:18:37.810Z,99964.09
2018-05-09T23:21:06.366Z,99958.86
2018-05-09T23:23:34.758Z,99961.59
2018-05-09T23:26:03.183Z,99954.54
2018-05-09T23:28:31.604Z,99965.47
2018-05-09T23:31:00.023Z,99967.05
2018-05-09T23:33:28.435Z,99978.31
2018-05-09T23:35:56.834Z,99978.42
2018-05-09T23:38:25.994Z,99979.52
2018-05-09T23:40:54.399Z,99979.12
2018-05-09T23:43:22.822Z,99974.77
2018-05-09T23:45:51.197Z,99977.83
2018-05-09T23:48:20.359Z,99981.80
2018-05-09T23:50:49.518Z,99982.36
2018-05-09T23:53:17.937Z,99987.23
2018-05-09T23:55:46.447Z,99983.45
2018-05-09T23:58:14.727Z,99985.44
